createdAt,value
2019-03-18T00:01:46.275Z,0.80
2019-03-18T00:04:15.139Z,0.20
2019-03-18T00:06:43.760Z,0.40
2019-03-18T00:09:12.435Z,0.20
2019-03-18T00:11:41.083Z,0.33
2019-03-18T00:14:09.706Z,0.50
2019-03-18T00:16:38.339Z,0.17
2019-03-18T00:19:06.963Z,0.75
2019-03-18T00:21:36.060Z,0.45
2019-03-18T00:24:04.700Z,0.33
2019-03-18T00:26:33.303Z,0.53
2019-03-18T00:29:02.595Z,0.55
2019-03-18T00:31:31.283Z,0.20
2019-03-18T00:33:59.927Z,0.35
2019-03-18T00:36:28.538Z,0.40
2019-03-18T00:38:57.155Z,0.30
2019-03-18T00:41:25.791Z,0.42
2019-03-18T00:43:54.413Z,0.43
2019-03-18T00:46:23.305Z,0.20
2019-03-18T00:48:51.940Z,0.57
2019-03-18T00:51:20.564Z,0.30
2019-03-18T00:53:49.360Z,0.30
2019-03-18T00:56:18.042Z,0.20
2019-03-18T00:58:46.668Z,0.30
2019-03-18T01:01:15.305Z,0.37
2019-03-18T01:03:44.179Z,0.80
2019-03-18T01:06:12.837Z,0.30
2019-03-18T01:08:41.464Z,0.45
2019-03-18T01:11:10.075Z,0.80
2019-03-18T01:13:38.715Z,0.28
2019-03-18T01:16:07.339Z,0.50
2019-03-18T01:18:36.042Z,0.53
2019-03-18T01:21:04.651Z,0.80
2019-03-18T01:23:33.260Z,0.50
2019-03-18T01:26:02.456Z,0.13
2019-03-18T01:28:31.115Z,0.70
2019-03-18T01:30:59.747Z,0.78
2019-03-18T01:33:28.368Z,0.33
2019-03-18T01:35:57.016Z,0.40
2019-03-18T01:38:25.635Z,0.57
2019-03-18T01:40:54.247Z,0.45
2019-03-18T01:43:23.007Z,0.33
2019-03-18T01:45:51.751Z,0.17
2019-03-18T01:48:20.375Z,0.83
2019-03-18T01:50:49.339Z,0.80
2019-03-18T01:53:18.024Z,0.20
2019-03-18T01:55:46.672Z,0.47
2019-03-18T01:58:15.301Z,0.23
2019-03-18T02:00:43.915Z,0.50
2019-03-18T02:03:12.535Z,0.40
2019-03-18T02:05:41.179Z,0.62
2019-03-18T02:08:09.799Z,0.40
2019-03-18T02:10:38.423Z,0.42
2019-03-18T02:13:07.668Z,0.60
2019-03-18T02:15:36.348Z,1.20
2019-03-18T02:18:04.957Z,0.83
2019-03-18T02:20:33.631Z,0.53
2019-03-18T02:23:02.219Z,1.40
2019-03-18T02:25:30.834Z,0.53
2019-03-18T02:27:59.467Z,0.27
2019-03-18T02:30:28.112Z,0.75
2019-03-18T02:32:56.749Z,0.70
2019-03-18T02:35:25.376Z,0.30
2019-03-18T02:37:54.094Z,0.85
2019-03-18T02:40:23.175Z,0.15
2019-03-18T02:42:51.787Z,0.33
2019-03-18T02:45:24.336Z,0.68
2019-03-18T02:47:50.734Z,0.40
2019-03-18T02:50:19.357Z,0.40
2019-03-18T02:52:48.510Z,1.60
2019-03-18T02:55:17.214Z,0.60
2019-03-18T02:57:45.904Z,0.20
2019-03-18T03:00:14.535Z,0.20
2019-03-18T03:02:43.413Z,0.47
2019-03-18T03:05:13.988Z,0.63
2019-03-18T03:07:42.617Z,0.82
2019-03-18T03:10:11.232Z,1.53
2019-03-18T03:12:40.836Z,1.15
2019-03-18T03:15:10.548Z,1.20
2019-03-18T03:17:39.169Z,0.57
2019-03-18T03:20:08.004Z,0.67
2019-03-18T03:22:36.659Z,0.72
2019-03-18T03:25:05.288Z,1.20
2019-03-18T03:27:34.982Z,1.30
2019-03-18T03:30:03.632Z,1.27
2019-03-18T03:32:32.317Z,0.85
2019-03-18T03:35:01.375Z,0.67
2019-03-18T03:37:30.366Z,1.60
2019-03-18T03:39:59.003Z,0.10
2019-03-18T03:42:27.631Z,0.68
2019-03-18T03:44:56.302Z,1.30
2019-03-18T03:47:24.904Z,0.53
2019-03-18T03:49:53.526Z,0.93
2019-03-18T03:52:22.343Z,1.73
2019-03-18T03:54:50.979Z,1.57
2019-03-18T03:57:19.659Z,1.80
2019-03-18T03:59:48.291Z,1.32
2019-03-18T04:02:16.913Z,2.02
2019-03-18T04:04:45.559Z,1.40
2019-03-18T04:07:14.400Z,1.57
2019-03-18T04:09:43.015Z,1.85
2019-03-18T04:12:11.629Z,1.55
2019-03-18T04:14:40.312Z,0.40
2019-03-18T04:17:09.002Z,2.10
2019-03-18T04:19:37.618Z,2.37
2019-03-18T04:22:06.760Z,1.72
2019-03-18T04:24:36.453Z,1.75
2019-03-18T04:27:05.085Z,1.67
2019-03-18T04:29:33.801Z,1.60
2019-03-18T04:32:02.407Z,1.73
2019-03-18T04:34:31.059Z,1.60
2019-03-18T04:37:00.769Z,1.80
2019-03-18T04:39:29.552Z,1.90
2019-03-18T04:41:58.186Z,1.98
2019-03-18T04:44:26.886Z,1.80
2019-03-18T04:46:55.499Z,0.72
2019-03-18T04:49:24.132Z,2.07
2019-03-18T04:51:52.771Z,2.08
2019-03-18T04:54:21.492Z,2.08
2019-03-18T04:56:50.133Z,1.80
2019-03-18T04:59:18.743Z,2.20
2019-03-18T05:01:47.362Z,2.10
2019-03-18T05:04:15.998Z,2.10
2019-03-18T05:06:44.627Z,2.03
2019-03-18T05:09:13.267Z,2.27
2019-03-18T05:11:41.885Z,1.50
2019-03-18T05:14:10.996Z,1.87
2019-03-18T05:16:39.611Z,2.02
2019-03-18T05:19:08.291Z,2.17
2019-03-18T05:21:36.936Z,2.50
2019-03-18T05:24:05.563Z,2.13
2019-03-18T05:26:34.224Z,1.65
2019-03-18T05:29:02.863Z,2.20
2019-03-18T05:31:31.475Z,1.67
2019-03-18T05:34:00.107Z,2.22
2019-03-18T05:36:28.743Z,2.17
2019-03-18T05:38:57.373Z,2.20
2019-03-18T05:41:25.987Z,1.55
2019-03-18T05:43:54.751Z,1.83
2019-03-18T05:46:23.376Z,1.92
2019-03-18T05:48:52.011Z,2.35
2019-03-18T05:51:21.275Z,2.52
2019-03-18T05:53:49.887Z,2.20
2019-03-18T05:56:18.513Z,2.77
2019-03-18T05:58:47.160Z,0.93
2019-03-18T06:01:15.786Z,2.25
2019-03-18T06:03:44.691Z,2.50
2019-03-18T06:06:13.341Z,1.45
2019-03-18T06:08:41.947Z,1.87
2019-03-18T06:11:10.591Z,2.40
2019-03-18T06:13:39.301Z,1.97
2019-03-18T06:16:07.914Z,1.97
2019-03-18T06:18:36.534Z,1.90
2019-03-18T06:21:05.847Z,2.20
2019-03-18T06:23:34.467Z,0.90
2019-03-18T06:26:03.104Z,2.62
2019-03-18T06:28:32.211Z,1.00
2019-03-18T06:31:00.844Z,1.12
2019-03-18T06:33:29.467Z,1.50
2019-03-18T06:35:58.085Z,1.50
2019-03-18T06:38:26.691Z,1.60
2019-03-18T06:40:55.326Z,2.17
2019-03-18T06:43:24.059Z,2.33
2019-03-18T06:45:52.682Z,2.40
2019-03-18T06:48:21.377Z,2.27
2019-03-18T06:50:50.178Z,2.50
2019-03-18T06:53:18.795Z,2.90
2019-03-18T06:55:47.412Z,3.17
2019-03-18T06:58:16.098Z,3.30
2019-03-18T07:00:44.775Z,3.25
2019-03-18T07:03:13.402Z,3.40
2019-03-18T07:05:42.054Z,3.42
2019-03-18T07:08:10.762Z,3.37
2019-03-18T07:10:39.399Z,3.63
2019-03-18T07:13:08.027Z,3.33
2019-03-18T07:15:36.648Z,3.90
2019-03-18T07:18:17.714Z,3.77
2019-03-18T07:20:35.535Z,4.10
2019-03-18T07:23:04.227Z,4.08
2019-03-18T07:25:33.328Z,4.37
2019-03-18T07:28:01.945Z,4.53
2019-03-18T07:30:30.595Z,3.98
2019-03-18T07:32:59.294Z,4.53
2019-03-18T07:35:27.911Z,4.72
2019-03-18T07:37:56.551Z,4.27
2019-03-18T07:40:25.166Z,4.40
2019-03-18T07:42:53.783Z,4.10
2019-03-18T07:45:22.403Z,4.07
2019-03-18T07:47:51.035Z,4.90
2019-03-18T07:50:19.763Z,4.00
2019-03-18T07:52:48.444Z,4.17
2019-03-18T07:55:17.070Z,3.92
2019-03-18T07:57:45.707Z,4.28
2019-03-18T08:00:14.430Z,4.17
2019-03-18T08:02:43.228Z,3.98
2019-03-18T08:05:11.848Z,4.17
2019-03-18T08:07:40.543Z,3.67
2019-03-18T08:10:09.327Z,3.80
2019-03-18T08:12:37.959Z,3.72
2019-03-18T08:15:06.580Z,3.30
2019-03-18T08:17:35.243Z,4.50
2019-03-18T08:20:04.076Z,3.33
2019-03-18T08:22:32.686Z,3.00
2019-03-18T08:25:01.653Z,3.92
2019-03-18T08:27:30.327Z,1.57
2019-03-18T08:29:58.948Z,2.67
2019-03-18T08:32:27.571Z,2.30
2019-03-18T08:34:56.202Z,1.85
2019-03-18T08:37:24.814Z,1.47
2019-03-18T08:39:53.428Z,1.80
2019-03-18T08:42:22.271Z,2.00
2019-03-18T08:44:50.905Z,2.47
2019-03-18T08:47:19.639Z,1.53
2019-03-18T08:49:48.279Z,1.53
2019-03-18T08:52:16.883Z,2.10
2019-03-18T08:54:45.521Z,1.30
2019-03-18T08:57:14.143Z,1.70
2019-03-18T08:59:42.771Z,1.57
2019-03-18T09:02:11.411Z,1.60
2019-03-18T09:04:40.110Z,1.60
2019-03-18T09:07:08.743Z,1.30
2019-03-18T09:09:37.375Z,1.65
2019-03-18T09:12:06.091Z,1.70
2019-03-18T09:14:34.712Z,1.70
2019-03-18T09:17:03.343Z,1.22
2019-03-18T09:19:32.147Z,1.63
2019-03-18T09:22:00.819Z,1.12
2019-03-18T09:24:29.438Z,1.60
2019-03-18T09:27:02.585Z,1.60
2019-03-18T09:29:28.319Z,1.37
2019-03-18T09:31:56.959Z,1.70
2019-03-18T09:34:25.567Z,0.67
2019-03-18T09:36:54.183Z,0.93
2019-03-18T09:39:22.822Z,1.00
2019-03-18T09:41:51.436Z,0.80
2019-03-18T09:44:20.047Z,1.30
2019-03-18T09:46:48.710Z,1.00
2019-03-18T09:49:21.973Z,1.10
2019-03-18T09:51:47.568Z,1.50
2019-03-18T09:54:16.213Z,1.42
2019-03-18T09:56:44.823Z,1.40
2019-03-18T09:59:13.436Z,1.55
2019-03-18T10:01:44.399Z,1.73
2019-03-18T10:04:12.370Z,1.20
2019-03-18T10:06:40.986Z,1.60
2019-03-18T10:09:09.772Z,0.95
2019-03-18T10:11:38.408Z,1.03
2019-03-18T10:14:07.195Z,1.53
2019-03-18T10:16:35.891Z,1.53
2019-03-18T10:19:04.547Z,1.37
2019-03-18T10:21:33.159Z,1.37
2019-03-18T10:24:01.875Z,1.33
2019-03-18T10:26:30.507Z,1.30
2019-03-18T10:28:59.121Z,1.30
2019-03-18T10:31:27.823Z,0.80
2019-03-18T10:33:56.615Z,1.30
2019-03-18T10:36:25.245Z,1.00
2019-03-18T10:38:53.945Z,1.40
2019-03-18T10:41:22.572Z,0.93
2019-03-18T10:43:51.208Z,1.10
2019-03-18T10:46:19.828Z,1.13
2019-03-18T10:48:48.447Z,0.97
2019-03-18T10:51:17.168Z,1.20
2019-03-18T10:53:45.781Z,0.88
2019-03-18T10:56:14.684Z,1.20
2019-03-18T10:58:43.316Z,0.83
2019-03-18T11:01:13.759Z,0.70
2019-03-18T11:03:42.481Z,1.17
2019-03-18T11:06:11.101Z,0.98
2019-03-18T11:08:39.707Z,0.60
2019-03-18T11:11:08.340Z,0.70
2019-03-18T11:13:36.956Z,0.73
2019-03-18T11:16:05.571Z,0.68
2019-03-18T11:18:34.402Z,0.50
2019-03-18T11:21:03.083Z,1.00
2019-03-18T11:23:31.695Z,0.70
2019-03-18T11:26:00.331Z,0.90
2019-03-18T11:28:30.031Z,1.00
2019-03-18T11:30:59.012Z,0.80
2019-03-18T11:33:28.659Z,0.70
2019-03-18T11:35:58.515Z,0.50
2019-03-18T11:38:27.155Z,0.72
2019-03-18T11:40:55.922Z,0.80
2019-03-18T11:43:24.631Z,1.00
2019-03-18T11:45:53.246Z,0.90
2019-03-18T11:48:21.860Z,1.02
2019-03-18T11:50:50.604Z,0.80
2019-03-18T11:53:19.219Z,1.10
2019-03-18T11:55:47.851Z,1.00
2019-03-18T11:58:17.559Z,0.90
2019-03-18T12:00:46.808Z,0.55
2019-03-18T12:03:15.415Z,0.70
2019-03-18T12:05:44.047Z,0.80
2019-03-18T12:08:12.670Z,0.62
2019-03-18T12:10:41.291Z,1.52
2019-03-18T12:13:09.915Z,0.70
2019-03-18T12:15:38.572Z,1.00
2019-03-18T12:18:07.179Z,0.77
2019-03-18T12:20:35.803Z,0.70
2019-03-18T12:23:05.185Z,0.70
2019-03-18T12:25:34.062Z,0.75
2019-03-18T12:28:05.200Z,0.50
2019-03-18T12:30:33.088Z,0.37
2019-03-18T12:33:01.784Z,0.70
2019-03-18T12:35:30.615Z,0.60
2019-03-18T12:37:59.223Z,0.63
2019-03-18T12:40:28.036Z,0.82
2019-03-18T12:42:56.876Z,0.80
2019-03-18T12:45:25.562Z,0.70
2019-03-18T12:47:54.192Z,0.62
2019-03-18T12:50:36.862Z,0.72
2019-03-18T12:52:53.050Z,0.97
2019-03-18T12:55:21.676Z,0.60
2019-03-18T12:57:50.901Z,0.78
2019-03-18T13:00:20.202Z,1.23
2019-03-18T13:02:48.839Z,0.90
2019-03-18T13:05:17.443Z,0.83
2019-03-18T13:07:46.143Z,1.03
2019-03-18T13:10:15.329Z,0.80
2019-03-18T13:12:43.954Z,0.90
2019-03-18T13:15:14.535Z,0.68
2019-03-18T13:17:43.992Z,1.10
2019-03-18T13:20:13.265Z,0.60
2019-03-18T13:22:41.876Z,0.70
2019-03-18T13:25:10.681Z,0.82
2019-03-18T13:27:39.361Z,0.70
2019-03-18T13:30:09.224Z,0.45
2019-03-18T13:32:37.863Z,0.80
2019-03-18T13:35:06.482Z,0.70
2019-03-18T13:37:35.114Z,1.13
2019-03-18T13:40:04.308Z,1.77
2019-03-18T13:42:32.915Z,0.90
2019-03-18T13:45:01.548Z,0.72
2019-03-18T13:47:30.431Z,1.07
2019-03-18T13:49:59.072Z,0.83
2019-03-18T13:52:27.683Z,0.47
2019-03-18T13:54:56.505Z,0.63
2019-03-18T13:57:25.211Z,1.70
2019-03-18T13:59:53.920Z,0.70
2019-03-18T14:02:22.538Z,1.00
2019-03-18T14:04:51.851Z,0.93
2019-03-18T14:07:22.466Z,1.23
2019-03-18T14:09:50.697Z,0.90
2019-03-18T14:12:19.436Z,1.23
2019-03-18T14:14:49.127Z,1.25
2019-03-18T14:17:17.853Z,0.80
2019-03-18T14:19:46.927Z,0.75
2019-03-18T14:22:15.535Z,1.40
2019-03-18T14:24:44.931Z,0.90
2019-03-18T14:27:14.119Z,0.88
2019-03-18T14:29:42.733Z,0.80
2019-03-18T14:32:11.359Z,0.93
2019-03-18T14:34:39.983Z,1.00
2019-03-18T14:37:08.637Z,0.93
2019-03-18T14:39:37.279Z,0.70
2019-03-18T14:42:05.899Z,0.80
2019-03-18T14:44:34.515Z,0.62
2019-03-18T14:47:03.166Z,0.80
2019-03-18T14:49:31.789Z,0.60
2019-03-18T14:52:00.411Z,0.57
2019-03-18T14:54:29.155Z,0.53
2019-03-18T14:56:58.190Z,0.65
2019-03-18T14:59:26.974Z,1.07
2019-03-18T15:01:55.614Z,0.63
2019-03-18T15:04:24.231Z,0.40
2019-03-18T15:06:53.599Z,0.68
2019-03-18T15:09:22.251Z,0.37
2019-03-18T15:11:51.049Z,0.90
2019-03-18T15:14:19.835Z,0.68
2019-03-18T15:16:48.487Z,0.20
2019-03-18T15:19:17.095Z,0.90
2019-03-18T15:21:57.607Z,1.30
2019-03-18T15:24:17.513Z,0.55
2019-03-18T15:26:46.259Z,0.80
2019-03-18T15:29:14.883Z,0.80
2019-03-18T15:31:43.629Z,0.60
2019-03-18T15:34:12.238Z,0.70
2019-03-18T15:36:40.895Z,0.37
2019-03-18T15:39:09.645Z,1.40
2019-03-18T15:41:38.259Z,0.47
2019-03-18T15:44:06.915Z,0.67
2019-03-18T15:46:35.558Z,0.80
2019-03-18T15:49:04.167Z,0.98
2019-03-18T15:51:32.790Z,0.70
2019-03-18T15:54:01.512Z,0.40
2019-03-18T15:56:30.123Z,0.93
2019-03-18T15:58:58.731Z,1.07
2019-03-18T16:01:27.367Z,0.40
2019-03-18T16:03:55.994Z,0.50
2019-03-18T16:06:24.683Z,0.57
2019-03-18T16:08:53.399Z,0.90
2019-03-18T16:11:22.011Z,1.07
2019-03-18T16:13:50.621Z,0.93
2019-03-18T16:16:19.243Z,1.00
2019-03-18T16:18:48.387Z,1.02
2019-03-18T16:21:17.029Z,1.07
2019-03-18T16:23:46.583Z,0.65
2019-03-18T16:26:15.279Z,0.68
2019-03-18T16:28:43.979Z,1.37
2019-03-18T16:31:12.647Z,0.90
2019-03-18T16:33:41.265Z,1.10
2019-03-18T16:36:10.184Z,0.65
2019-03-18T16:38:38.907Z,0.98
2019-03-18T16:41:07.572Z,0.60
2019-03-18T16:43:36.191Z,1.35
2019-03-18T16:46:04.849Z,0.78
2019-03-18T16:48:33.563Z,1.30
2019-03-18T16:51:02.275Z,1.00
2019-03-18T16:53:30.895Z,1.25
2019-03-18T16:55:59.624Z,1.30
2019-03-18T16:58:28.246Z,1.10
2019-03-18T17:00:56.883Z,1.03
2019-03-18T17:03:25.511Z,1.10
2019-03-18T17:05:54.130Z,1.02
2019-03-18T17:08:22.831Z,1.00
2019-03-18T17:10:51.535Z,0.85
2019-03-18T17:13:20.143Z,0.90
2019-03-18T17:15:48.871Z,1.20
2019-03-18T17:18:18.144Z,0.90
2019-03-18T17:20:46.988Z,0.98
2019-03-18T17:23:15.627Z,1.40
2019-03-18T17:25:44.231Z,0.90
2019-03-18T17:28:12.887Z,1.37
2019-03-18T17:30:41.501Z,0.95
2019-03-18T17:33:10.166Z,1.23
2019-03-18T17:35:38.768Z,1.27
2019-03-18T17:38:07.374Z,1.40
2019-03-18T17:40:36.004Z,1.77
2019-03-18T17:43:05.023Z,1.82
2019-03-18T17:45:33.703Z,2.53
2019-03-18T17:48:02.408Z,1.50
2019-03-18T17:50:31.228Z,0.57
2019-03-18T17:53:03.472Z,1.50
2019-03-18T17:55:30.104Z,1.60
2019-03-18T17:57:58.812Z,1.85
2019-03-18T18:00:32.864Z,1.10
2019-03-18T18:03:01.495Z,1.55
2019-03-18T18:05:30.123Z,1.70
2019-03-18T18:07:58.779Z,1.33
2019-03-18T18:10:28.136Z,1.20
2019-03-18T18:12:57.011Z,1.60
2019-03-18T18:15:26.021Z,1.53
2019-03-18T18:17:54.736Z,1.57
2019-03-18T18:20:23.467Z,1.70
2019-03-18T18:22:52.088Z,1.77
2019-03-18T18:25:21.183Z,1.50
2019-03-18T18:27:49.904Z,1.47
2019-03-18T18:30:19.958Z,1.25
2019-03-18T18:32:48.580Z,1.33
2019-03-18T18:35:17.199Z,1.25
2019-03-18T18:37:45.831Z,1.87
2019-03-18T18:40:15.037Z,1.73
2019-03-18T18:42:43.655Z,1.97
2019-03-18T18:45:12.411Z,1.77
2019-03-18T18:47:41.015Z,1.80
2019-03-18T18:50:09.749Z,1.55
2019-03-18T18:52:38.395Z,2.27
2019-03-18T18:55:07.047Z,4.27
2019-03-18T18:57:35.724Z,2.98
2019-03-18T19:00:04.775Z,1.57
2019-03-18T19:02:35.016Z,1.60
2019-03-18T19:05:03.844Z,1.47
2019-03-18T19:07:32.583Z,2.20
2019-03-18T19:10:01.272Z,1.77
2019-03-18T19:12:30.215Z,1.37
2019-03-18T19:14:58.851Z,1.50
2019-03-18T19:17:28.540Z,1.72
2019-03-18T19:19:57.161Z,1.35
2019-03-18T19:22:25.796Z,1.65
2019-03-18T19:24:54.423Z,1.90
2019-03-18T19:27:24.127Z,1.87
2019-03-18T19:29:52.768Z,1.10
2019-03-18T19:32:22.663Z,1.50
2019-03-18T19:34:52.571Z,1.90
2019-03-18T19:37:21.351Z,1.65
2019-03-18T19:39:51.047Z,1.43
2019-03-18T19:42:19.687Z,1.45
2019-03-18T19:44:48.299Z,1.30
2019-03-18T19:47:17.247Z,1.40
2019-03-18T19:49:45.879Z,1.53
2019-03-18T19:52:14.517Z,1.70
2019-03-18T19:54:43.132Z,2.22
2019-03-18T19:57:12.186Z,1.93
2019-03-18T19:59:40.792Z,2.23
2019-03-18T20:02:10.268Z,1.92
2019-03-18T20:04:38.912Z,1.67
2019-03-18T20:07:07.615Z,2.03
2019-03-18T20:09:36.263Z,1.55
2019-03-18T20:12:04.948Z,2.02
2019-03-18T20:14:34.260Z,2.22
2019-03-18T20:17:03.003Z,3.43
2019-03-18T20:19:31.633Z,8.33
2019-03-18T20:22:00.266Z,12.37
2019-03-18T20:24:28.896Z,3.93
2019-03-18T20:26:58.483Z,6.20
2019-03-18T20:29:27.135Z,2.67
2019-03-18T20:31:55.745Z,2.25
2019-03-18T20:34:24.371Z,2.27
2019-03-18T20:36:53.003Z,2.42
2019-03-18T20:39:21.631Z,2.15
2019-03-18T20:41:50.339Z,2.60
2019-03-18T20:44:19.259Z,2.90
2019-03-18T20:46:48.942Z,2.77
2019-03-18T20:49:17.680Z,2.85
2019-03-18T20:51:46.387Z,3.43
2019-03-18T20:54:15.071Z,3.40
2019-03-18T20:56:43.703Z,3.15
2019-03-18T20:59:12.335Z,3.15
2019-03-18T21:01:40.959Z,3.12
2019-03-18T21:04:09.571Z,3.03
2019-03-18T21:06:38.170Z,2.93
2019-03-18T21:09:07.151Z,3.43
2019-03-18T21:11:35.851Z,3.33
2019-03-18T21:14:04.755Z,2.85
2019-03-18T21:16:33.380Z,4.43
2019-03-18T21:19:02.017Z,4.97
2019-03-18T21:21:30.615Z,4.42
2019-03-18T21:23:59.239Z,3.63
2019-03-18T21:26:27.879Z,2.83
2019-03-18T21:28:57.153Z,3.72
2019-03-18T21:31:25.757Z,3.67
2019-03-18T21:33:54.380Z,3.37
2019-03-18T21:36:36.775Z,2.70
2019-03-18T21:38:53.663Z,2.30
2019-03-18T21:41:23.380Z,3.10
2019-03-18T21:43:53.055Z,3.50
2019-03-18T21:46:22.076Z,3.43
2019-03-18T21:48:50.754Z,3.07
2019-03-18T21:51:19.387Z,3.10
2019-03-18T21:53:48.607Z,3.00
2019-03-18T21:56:17.296Z,3.67
2019-03-18T21:58:46.011Z,3.07
2019-03-18T22:01:15.167Z,3.10
2019-03-18T22:03:43.790Z,2.77
2019-03-18T22:06:12.432Z,3.30
2019-03-18T22:08:41.103Z,2.98
2019-03-18T22:11:10.217Z,2.75
2019-03-18T22:13:38.855Z,3.15
2019-03-18T22:16:07.511Z,3.17
2019-03-18T22:18:36.191Z,3.30
2019-03-18T22:21:04.827Z,2.85
2019-03-18T22:23:33.558Z,2.87
2019-03-18T22:26:02.248Z,3.22
2019-03-18T22:28:30.903Z,3.33
2019-03-18T22:31:00.005Z,3.52
2019-03-18T22:33:29.219Z,3.58
2019-03-18T22:35:57.875Z,3.10
2019-03-18T22:38:26.494Z,3.50
2019-03-18T22:40:55.113Z,2.75
2019-03-18T22:43:23.735Z,3.03
2019-03-18T22:45:52.392Z,2.95
2019-03-18T22:48:21.412Z,3.87
2019-03-18T22:50:51.115Z,3.40
2019-03-18T22:53:19.747Z,3.67
2019-03-18T22:55:48.360Z,3.53
2019-03-18T22:58:19.335Z,3.87
2019-03-18T23:00:49.168Z,3.80
2019-03-18T23:03:17.924Z,4.45
2019-03-18T23:05:46.682Z,4.03
2019-03-18T23:08:15.291Z,4.05
2019-03-18T23:10:43.903Z,3.33
2019-03-18T23:13:12.631Z,3.47
2019-03-18T23:15:43.116Z,3.10
2019-03-18T23:18:11.856Z,3.80
2019-03-18T23:20:40.599Z,3.37
2019-03-18T23:23:09.224Z,3.15
2019-03-18T23:25:37.865Z,3.35
2019-03-18T23:28:06.733Z,3.45
2019-03-18T23:30:35.351Z,2.95
2019-03-18T23:33:04.168Z,3.03
2019-03-18T23:35:32.851Z,3.13
2019-03-18T23:38:02.559Z,3.27
2019-03-18T23:40:31.179Z,3.27
2019-03-18T23:42:59.883Z,3.87
2019-03-18T23:45:28.887Z,3.65
2019-03-18T23:47:57.499Z,3.07
2019-03-18T23:50:26.155Z,3.15
2019-03-18T23:52:54.768Z,3.03
2019-03-18T23:55:24.030Z,3.62
2019-03-18T23:57:54.382Z,3.50
